createdAt,value
2023-04-11T00:00:12.133Z,15.9
2023-04-11T00:10:13.120Z,16.4
2023-04-11T00:20:12.679Z,15.9
2023-04-11T00:30:12.928Z,16
2023-04-11T00:40:14.080Z,15.9
2023-04-11T00:50:13.479Z,16
2023-04-11T01:00:13.430Z,15.9
2023-04-11T01:10:13.116Z,15.9
2023-04-11T01:20:13.217Z,16.4
2023-04-11T01:30:13.909Z,15.9
2023-04-11T01:40:15.111Z,15.9
2023-04-11T01:50:14.738Z,16.4
2023-04-11T02:00:14.280Z,15.9
2023-04-11T02:10:13.977Z,15.9
2023-04-11T02:20:14.077Z,15.9
2023-04-11T02:30:14.283Z,15.9
2023-04-11T02:40:13.544Z,15.8
2023-04-11T02:50:13.522Z,15.9
2023-04-11T03:10:09.806Z,16.1
2023-04-11T03:20:09.419Z,15.9
2023-04-11T03:30:10.290Z,15.9
2023-04-11T03:40:11.421Z,16.3
2023-04-11T03:50:10.819Z,15.9
2023-04-11T04:00:11.830Z,15.9
2023-04-11T04:10:13.716Z,16.3
2023-04-11T04:20:14.762Z,15.8
2023-04-11T04:30:15.965Z,15.8
2023-04-11T04:40:16.430Z,15.9
2023-04-11T04:50:16.953Z,15.9
2023-04-11T05:00:16.858Z,15.8
2023-04-11T05:10:17.136Z,15.9
2023-04-11T05:20:17.205Z,15.8
2023-04-11T05:30:16.943Z,15.9
2023-04-11T05:40:16.215Z,16.2
2023-04-11T05:50:17.047Z,16.3
2023-04-11T06:00:17.606Z,16.6
2023-04-11T06:10:19.892Z,16.4
2023-04-11T06:20:26.493Z,16.4
2023-04-11T06:30:31.549Z,16.6
2023-04-11T06:40:35.296Z,16.7
2023-04-11T06:50:39.850Z,16.8
2023-04-11T07:00:41.566Z,17.1
2023-04-11T07:10:42.864Z,17.3
2023-04-11T07:20:43.449Z,17.4
2023-04-11T07:30:44.796Z,17.6
2023-04-11T07:40:48.249Z,17.7
2023-04-11T07:50:53.199Z,17.6
2023-04-11T08:00:58.970Z,17.5
2023-04-11T08:11:05.483Z,17.8
2023-04-11T08:21:09.949Z,17.8
2023-04-11T08:31:16.131Z,18
2023-04-11T08:41:18.616Z,18.1
2023-04-11T08:51:24.975Z,17.9
2023-04-11T09:10:17.381Z,18.1
2023-04-11T09:20:24.073Z,18.3
2023-04-11T09:30:33.202Z,18.4
2023-04-11T09:40:39.182Z,18.4
2023-04-11T09:50:45.912Z,18.6
2023-04-11T10:00:53.734Z,18.6
2023-04-11T10:10:57.222Z,18.6
2023-04-11T10:21:06.017Z,19
2023-04-11T10:31:10.288Z,18.6
2023-04-11T10:41:12.373Z,18.8
2023-04-11T10:51:18.352Z,18.6
2023-04-11T11:01:26.458Z,18.9
2023-04-11T11:11:19.681Z,18.9
2023-04-11T11:21:26.684Z,18.4
2023-04-11T11:31:21.177Z,18.5
2023-04-11T11:41:23.153Z,18.8
2023-04-11T11:51:25.906Z,18.9
2023-04-11T12:01:27.259Z,18.8
2023-04-11T12:11:32.226Z,18.9
2023-04-11T12:21:32.177Z,18.8
2023-04-11T12:31:39.346Z,18.5
2023-04-11T12:41:42.060Z,18.4
2023-04-11T12:51:47.283Z,18.5
2023-04-11T13:01:53.017Z,18.5
2023-04-11T13:11:55.633Z,18.5
2023-04-11T13:21:56.977Z,18.5
2023-04-11T13:32:00.318Z,18.8
2023-04-11T13:42:02.133Z,18.5
2023-04-11T13:52:04.849Z,19
2023-04-11T14:02:07.314Z,18.1
2023-04-11T14:12:08.147Z,18.1
2023-04-11T14:22:10.869Z,18.5
2023-04-11T14:32:13.479Z,17.9
2023-04-11T14:42:14.161Z,18.3
2023-04-11T14:52:14.943Z,18.3
2023-04-11T15:10:10.313Z,18.4
2023-04-11T15:20:10.265Z,18.4
2023-04-11T15:30:12.013Z,17.7
2023-04-11T15:40:12.436Z,17.9
2023-04-11T15:50:12.157Z,17.9
2023-04-11T16:00:13.073Z,18.1
2023-04-11T16:10:14.613Z,17.7
2023-04-11T16:20:15.889Z,17.6
2023-04-11T16:30:18.257Z,18.1
2023-04-11T16:40:17.965Z,17.7
2023-04-11T16:50:19.416Z,17.6
2023-04-11T17:00:19.386Z,17.6
2023-04-11T17:10:18.741Z,17.5
2023-04-11T17:20:18.210Z,17.4
2023-04-11T17:30:17.586Z,17.5
2023-04-11T17:40:17.504Z,17.3
2023-04-11T17:50:18.946Z,17.1
2023-04-11T18:00:20.112Z,17.6
2023-04-11T18:10:19.373Z,17.3
2023-04-11T18:20:19.968Z,17.1
2023-04-11T18:30:19.784Z,17.1
2023-04-11T18:40:19.991Z,17.2
2023-04-11T18:50:20.178Z,17.1
2023-04-11T19:00:19.733Z,17.1
2023-04-11T19:10:19.435Z,17.1
2023-04-11T19:20:20.281Z,17.1
2023-04-11T19:30:20.795Z,17.3
2023-04-11T19:40:20.082Z,17.1
2023-04-11T19:50:20.753Z,17.3
2023-04-11T20:00:21.569Z,17.5
2023-04-11T20:10:23.141Z,17.3
2023-04-11T20:20:23.111Z,17.1
2023-04-11T20:30:22.344Z,16.9
2023-04-11T20:40:22.357Z,16.8
2023-04-11T20:50:22.954Z,17.1
2023-04-11T21:10:08.047Z,16.8
2023-04-11T21:20:09.099Z,17.2
2023-04-11T21:30:09.691Z,16.6
2023-04-11T21:40:08.582Z,16.8
2023-04-11T21:50:09.196Z,16.7
2023-04-11T22:00:09.127Z,16.6
2023-04-11T22:10:10.616Z,16.6
2023-04-11T22:20:12.900Z,17.1
2023-04-11T22:30:13.453Z,16.6
2023-04-11T22:40:15.269Z,16.9
2023-04-11T22:50:16.152Z,16.6
2023-04-11T23:00:16.033Z,16.6
2023-04-11T23:10:15.531Z,16.6
2023-04-11T23:20:15.965Z,16.6
2023-04-11T23:30:15.103Z,16.6
2023-04-11T23:40:15.045Z,16.4
2023-04-11T23:50:15.507Z,16.4
